createdAt,value
2022-10-29T00:02:15.136Z,4149
2022-10-29T00:07:51.026Z,4149.3
2022-10-29T00:13:26.054Z,4147
2022-10-29T00:19:00.823Z,4150.6
2022-10-29T00:24:36.142Z,4150.3
2022-10-29T00:30:11.436Z,4148.5
2022-10-29T00:35:46.347Z,4148.6
2022-10-29T00:41:43.276Z,4147.5
2022-10-29T00:47:16.037Z,4148.6
2022-10-29T00:53:11.882Z,4146.5
2022-10-29T00:58:46.998Z,4145.6
2022-10-29T01:04:24.189Z,4146.8
2022-10-29T01:10:00.182Z,4147.5
2022-10-29T01:15:36.288Z,4146.3
2022-10-29T01:21:11.416Z,4148.1
2022-10-29T01:26:46.571Z,4146
2022-10-29T01:32:21.547Z,4146
2022-10-29T01:37:56.481Z,4145.3
2022-10-29T01:43:53.294Z,4144.1
2022-10-29T01:49:26.065Z,4145.3
2022-10-29T01:55:01.733Z,4145.6
2022-10-29T02:00:37.548Z,4145.8
2022-10-29T02:06:15.314Z,4146.1
2022-10-29T02:11:50.555Z,4145.1
2022-10-29T02:17:26.755Z,4145.6
2022-10-29T02:23:09.824Z,4144.1
2022-10-29T02:28:47.591Z,4144.5
2022-10-29T02:34:22.553Z,4145
2022-10-29T02:39:57.878Z,4144.1
2022-10-29T02:45:33.037Z,4143.8
2022-10-29T02:51:10.983Z,4143.1
2022-10-29T02:56:46.197Z,4142.3
2022-10-29T03:02:23.417Z,4141.9
2022-10-29T03:07:58.780Z,4138.9
2022-10-29T03:13:34.661Z,4141.8
2022-10-29T03:19:14.839Z,4142.6
2022-10-29T03:24:49.543Z,4140.4
2022-10-29T03:30:24.731Z,4143.8
2022-10-29T03:36:02.688Z,4142.9
2022-10-29T03:41:59.633Z,4137.8
2022-10-29T03:47:32.380Z,4139.9
2022-10-29T03:53:13.116Z,4138.4
2022-10-29T03:58:48.983Z,4139.9
2022-10-29T04:04:39.816Z,4140.1
2022-10-29T04:10:23.712Z,4135.9
2022-10-29T04:15:59.798Z,4137.9
2022-10-29T04:28:41.162Z,4140.6
2022-10-29T04:34:17.995Z,4132.9
2022-10-29T04:39:57.310Z,4134.1
2022-10-29T04:45:33.674Z,4135.9
2022-10-29T04:51:08.464Z,4135.4
2022-10-29T04:56:46.634Z,4134.2
2022-10-29T05:02:21.891Z,4135.2
2022-10-29T05:07:56.633Z,4132.9
2022-10-29T05:13:32.785Z,4133.1
2022-10-29T05:19:09.698Z,4134.1
2022-10-29T05:24:44.603Z,4133.2
2022-10-29T05:30:20.477Z,4132.1
2022-10-29T05:35:56.827Z,4135.2
2022-10-29T05:41:53.447Z,4128.2
2022-10-29T05:47:27.100Z,4135.9
2022-10-29T05:53:02.810Z,4132.6
2022-10-29T05:58:59.584Z,4134.6
2022-10-29T06:04:35.919Z,4130.9
2022-10-29T06:10:11.819Z,4131.1
2022-10-29T06:16:00.146Z,4131.1
2022-10-29T06:21:35.150Z,4130
2022-10-29T06:27:09.936Z,4128.2
2022-10-29T06:32:49.978Z,4129.4
2022-10-29T06:38:34.126Z,4127
2022-10-29T06:44:10.941Z,4128.9
2022-10-29T06:49:45.793Z,4126.5
2022-10-29T06:55:21.037Z,4130.7
2022-10-29T07:06:31.345Z,4131.9
2022-10-29T07:12:07.134Z,4135.7
2022-10-29T07:17:42.399Z,4136.7
2022-10-29T07:23:18.038Z,4138.1
2022-10-29T07:28:53.115Z,4135.1
2022-10-29T07:34:28.108Z,4136.2
2022-10-29T07:40:03.015Z,4138.8
2022-10-29T07:45:38.412Z,4145.6
2022-10-29T07:51:13.267Z,4154.7
2022-10-29T07:56:49.141Z,4170.1
2022-10-29T08:02:24.352Z,4165.7
2022-10-29T08:08:05.267Z,4166.7
2022-10-29T08:13:43.054Z,4168.9
2022-10-29T08:19:18.249Z,4174.9
2022-10-29T08:24:53.460Z,4184.8
2022-10-29T08:30:28.492Z,4195.7
2022-10-29T08:36:03.776Z,4200.2
2022-10-29T08:42:00.315Z,4190.2
2022-10-29T08:47:33.178Z,4180.5
2022-10-29T08:53:34.406Z,4188.2
2022-10-29T08:59:09.587Z,4191.5
2022-10-29T09:04:44.721Z,4188.3
2022-10-29T09:10:19.918Z,4199.1
2022-10-29T09:15:58.961Z,4200.7
2022-10-29T09:21:37.769Z,4208.3
2022-10-29T09:27:13.070Z,4198.1
2022-10-29T09:32:52.960Z,4206.9
2022-10-29T09:38:28.108Z,4209.6
2022-10-29T09:44:03.905Z,4194.7
2022-10-29T09:49:38.717Z,4214.5
2022-10-29T09:55:14.851Z,4194.9
2022-10-29T10:00:50.082Z,4193.7
2022-10-29T10:06:25.082Z,4193.7
2022-10-29T10:11:59.769Z,4204.6
2022-10-29T10:17:34.692Z,4215.5
2022-10-29T10:23:09.920Z,4206.4
2022-10-29T10:28:45.739Z,4206.4
2022-10-29T10:34:22.037Z,4203.6
2022-10-29T10:39:58.248Z,4202.4
2022-10-29T10:45:40.521Z,4198.9
2022-10-29T10:51:15.617Z,4214.3
2022-10-29T10:56:50.435Z,4216
2022-10-29T11:02:26.300Z,4204.4
2022-10-29T11:08:01.570Z,4206.3
2022-10-29T11:13:36.312Z,4201.1
2022-10-29T11:19:11.115Z,4209.8
2022-10-29T11:24:47.192Z,4211.5
2022-10-29T11:30:23.086Z,4208.6
2022-10-29T11:36:02.953Z,4215.6
2022-10-29T11:41:59.769Z,4218
2022-10-29T11:47:32.736Z,4214.8
2022-10-29T11:53:07.916Z,4210.1
2022-10-29T11:58:42.781Z,4207.6
2022-10-29T12:04:25.283Z,4211.8
2022-10-29T12:10:01.345Z,4211
2022-10-29T12:15:37.533Z,4211.6
2022-10-29T12:21:12.572Z,4207.9
2022-10-29T12:26:47.564Z,4208.1
2022-10-29T12:32:23.791Z,4209.4
2022-10-29T12:38:01.169Z,4202.9
2022-10-29T12:43:57.718Z,4205.8
2022-10-29T12:49:31.637Z,4209.6
2022-10-29T12:55:06.587Z,4207.1
2022-10-29T13:00:41.354Z,4207.4
2022-10-29T13:06:16.460Z,4209.1
2022-10-29T13:11:51.238Z,4205.8
2022-10-29T13:17:26.122Z,4210.1
2022-10-29T13:23:11.571Z,4209.8
2022-10-29T13:28:46.719Z,4207.6
2022-10-29T13:34:21.670Z,4207.9
2022-10-29T13:39:57.035Z,4208.3
2022-10-29T13:45:31.998Z,4210.6
2022-10-29T13:51:07.933Z,4208.4
2022-10-29T13:56:45.029Z,4211.5
2022-10-29T14:02:21.736Z,4210.6
2022-10-29T14:08:00.565Z,4209.8
2022-10-29T14:13:36.396Z,4207.6
2022-10-29T14:19:11.280Z,4208.9
2022-10-29T14:24:46.080Z,4208.8
2022-10-29T14:30:21.180Z,4206.4
2022-10-29T14:35:55.948Z,4206.9
2022-10-29T14:41:30.752Z,4206.1
2022-10-29T14:47:06.582Z,4205.1
2022-10-29T14:52:41.419Z,4205.6
2022-10-29T14:58:17.290Z,4204.9
2022-10-29T15:03:52.193Z,4205.3
2022-10-29T15:09:27.255Z,4203.7
2022-10-29T15:15:02.450Z,4206.1
2022-10-29T15:20:37.585Z,4205.1
2022-10-29T15:26:12.393Z,4204.6
2022-10-29T15:31:47.184Z,4205.9
2022-10-29T15:37:23.111Z,4207.3
2022-10-29T15:43:19.834Z,4202.4
2022-10-29T15:48:52.492Z,4202.2
2022-10-29T15:54:27.675Z,4202.9
2022-10-29T16:05:38.711Z,4197.9
2022-10-29T16:11:13.563Z,4201.4
2022-10-29T16:16:51.439Z,4200.9
2022-10-29T16:22:26.379Z,4198.7
2022-10-29T16:28:02.514Z,4200.1
2022-10-29T16:33:37.404Z,4199.2
2022-10-29T16:39:14.065Z,4199.7
2022-10-29T16:44:49.397Z,4200.7
2022-10-29T16:50:24.631Z,4197.5
2022-10-29T16:56:00.266Z,4197.7
2022-10-29T17:01:35.267Z,4197
2022-10-29T17:07:10.350Z,4197.5
2022-10-29T17:12:45.575Z,4197.4
2022-10-29T17:18:21.687Z,4196.5
2022-10-29T17:23:56.534Z,4196.7
2022-10-29T17:29:37.392Z,4195.5
2022-10-29T17:35:12.657Z,4197
2022-10-29T17:41:09.224Z,4193.4
2022-10-29T17:46:41.912Z,4195.9
2022-10-29T17:52:17.118Z,4192.7
2022-10-29T17:58:02.659Z,4194.9
2022-10-29T18:03:37.614Z,4195
2022-10-29T18:09:39.812Z,4192.4
2022-10-29T18:15:35.542Z,4193.5
2022-10-29T18:21:36.827Z,4193.5
2022-10-29T18:27:32.649Z,4190.3
2022-10-29T18:33:12.626Z,4189.2
2022-10-29T18:38:48.400Z,4190.3
2022-10-29T18:44:23.668Z,4189.2
2022-10-29T18:49:59.359Z,4189.8
2022-10-29T18:55:34.636Z,4191
2022-10-29T19:01:11.208Z,4191.5
2022-10-29T19:06:46.074Z,4189.7
2022-10-29T19:12:20.837Z,4190.8
2022-10-29T19:17:59.337Z,4186.3
2022-10-29T19:23:34.478Z,4185
2022-10-29T19:29:10.350Z,4188.8
2022-10-29T19:34:46.228Z,4184
2022-10-29T19:40:21.201Z,4186.8
2022-10-29T19:45:57.042Z,4185.2
2022-10-29T19:51:32.169Z,4183.1
2022-10-29T19:57:08.292Z,4184.3
2022-10-29T20:02:44.670Z,4185.7
2022-10-29T20:08:19.905Z,4181.6
2022-10-29T20:13:56.042Z,4182.6
2022-10-29T20:19:30.956Z,4184.1
2022-10-29T20:25:06.116Z,4184.3
2022-10-29T20:30:41.223Z,4182.3
2022-10-29T20:36:18.098Z,4181.8
2022-10-29T20:42:15.236Z,4180.3
2022-10-29T20:47:47.913Z,4182
2022-10-29T20:53:22.708Z,4180.8
2022-10-29T20:58:58.010Z,4181.6
2022-10-29T21:04:33.126Z,4180.3
2022-10-29T21:10:07.934Z,4182
2022-10-29T21:15:43.092Z,4177.8
2022-10-29T21:21:18.156Z,4177.5
2022-10-29T21:26:53.023Z,4177.6
2022-10-29T21:32:27.835Z,4179.3
2022-10-29T21:38:03.425Z,4177.3
2022-10-29T21:44:00.410Z,4177.6
2022-10-29T21:49:33.057Z,4179.5
2022-10-29T21:55:07.903Z,4177.1
2022-10-29T22:00:42.661Z,4177.3
2022-10-29T22:06:17.603Z,4175.1
2022-10-29T22:11:52.724Z,4176.8
2022-10-29T22:17:29.982Z,4179.6
2022-10-29T22:23:07.021Z,4175.6
2022-10-29T22:28:42.464Z,4173.1
2022-10-29T22:34:17.339Z,4175.3
2022-10-29T22:39:52.561Z,4175.8
2022-10-29T22:45:27.642Z,4173.9
2022-10-29T22:51:03.411Z,4174.3
2022-10-29T22:56:39.589Z,4173.8
2022-10-29T23:02:17.566Z,4175.8
2022-10-29T23:07:52.621Z,4174.8
2022-10-29T23:13:27.732Z,4174.3
2022-10-29T23:19:03.703Z,4173.6
2022-10-29T23:24:38.661Z,4172.3
2022-10-29T23:30:14.025Z,4171.6
2022-10-29T23:35:49.921Z,4171.8
2022-10-29T23:41:46.477Z,4168.9
2022-10-29T23:47:19.236Z,4171.6
2022-10-29T23:52:53.992Z,4170.4
2022-10-29T23:58:29.047Z,4170.7
